Time;durP1;ratioP1;P1;durP2;ratioP2;P2;SDS_P1;SDS_P2;PMS_P1;PMS_P2;Temp;Humidity;BMP_temperature;BMP_pressure;BME280_temperature;BME280_humidity;BME280_pressure;Samples;Min_cycle;Max_cycle;Signal;HPM_P1;HPM_P2
2024/03/20 00:00:10;;;;;;;;;;;;;;;7.74;nan;101677.69;5191415;22;20218;-68
2024/03/20 00:02:13;;;;;;;;;;;;;;;7.72;nan;101671.63;5191374;22;19923;-68
2024/03/20 00:04:15;;;;;;;;;;;;;;;7.71;nan;101661.84;5191822;22;20318;-68
2024/03/20 00:06:18;;;;;;;;;;;;;;;7.71;nan;101664.53;5191510;22;19926;-68
2024/03/20 00:08:20;;;;;;;;;;;;;;;7.69;nan;101659.28;5191789;22;19929;-69
2024/03/20 00:10:23;;;;;;;;;;;;;;;7.68;nan;101656.72;5190824;22;19919;-69
2024/03/20 00:12:25;;;;;;;;;;;;;;;7.66;nan;101661.41;5191041;22;19925;-68
2024/03/20 00:14:28;;;;;;;;;;;;;;;7.67;nan;101672.03;5191048;22;20345;-68
2024/03/20 00:16:30;;;;;;;;;;;;;;;7.65;nan;101671.31;5191301;22;19929;-68
2024/03/20 00:18:32;;;;;;;;;;;;;;;7.65;nan;101678.50;5190446;22;19923;-68
2024/03/20 00:20:35;;;;;;;;;;;;;;;7.63;nan;101662.50;5191334;22;19923;-68
2024/03/20 00:22:38;;;;;;;;;;;;;;;7.61;nan;101669.88;5191489;22;20255;-68
2024/03/20 00:24:40;;;;;;;;;;;;;;;7.61;nan;101663.66;5191044;22;20254;-69
2024/03/20 00:26:43;;;;;;;;;;;;;;;7.60;nan;101654.72;5190864;22;19919;-68
2024/03/20 00:28:44;;;;;;;;;;;;;;;7.61;nan;101650.22;5191463;22;19929;-68
2024/03/20 00:30:46;;;;;;;;;;;;;;;7.61;nan;101652.91;5191386;22;19919;-68
2024/03/20 00:32:47;;;;;;;;;;;;;;;7.60;nan;101649.34;5192015;22;19941;-68
2024/03/20 00:34:50;;;;;;;;;;;;;;;7.58;nan;101654.00;5191254;22;19923;-68
2024/03/20 00:36:51;;;;;;;;;;;;;;;7.54;nan;101648.06;5192282;22;20372;-68
2024/03/20 00:38:54;;;;;;;;;;;;;;;7.56;nan;101651.44;5191949;22;19920;-68
2024/03/20 00:40:57;;;;;;;;;;;;;;;7.56;nan;101645.25;5191220;22;19929;-68
2024/03/20 00:42:59;;;;;;;;;;;;;;;7.54;nan;101640.00;5191618;22;19920;-69
2024/03/20 00:45:03;;;;;;;;;;;;;;;7.53;nan;101640.97;5193797;22;19930;-68
2024/03/20 00:47:04;;;;;;;;;;;;;;;7.53;nan;101629.38;5193680;22;19923;-68
2024/03/20 00:49:07;;;;;;;;;;;;;;;7.51;nan;101632.19;5193972;22;19920;-68
2024/03/20 00:51:09;;;;;;;;;;;;;;;7.49;nan;101623.44;5192180;22;19929;-68
2024/03/20 00:53:11;;;;;;;;;;;;;;;7.48;nan;101628.94;5193876;22;19919;-69
2024/03/20 00:55:15;;;;;;;;;;;;;;;7.45;nan;101627.38;5193437;22;19966;-69
2024/03/20 00:57:16;;;;;;;;;;;;;;;7.45;nan;101624.66;5192703;22;19919;-68
2024/03/20 00:59:20;;;;;;;;;;;;;;;7.43;nan;101620.41;5192982;22;20385;-68
2024/03/20 01:01:22;;;;;;;;;;;;;;;7.39;nan;101620.66;5193175;22;19923;-68
2024/03/20 01:03:23;;;;;;;;;;;;;;;7.38;nan;101626.19;5193286;22;19933;-68
2024/03/20 01:05:25;;;;;;;;;;;;;;;7.37;nan;101630.72;5193225;22;19919;-68
2024/03/20 01:07:27;;;;;;;;;;;;;;;7.35;nan;101630.00;5193388;22;20324;-67
2024/03/20 01:09:29;;;;;;;;;;;;;;;7.35;nan;101631.81;5193091;22;19945;-67
2024/03/20 01:11:32;;;;;;;;;;;;;;;7.35;nan;101631.81;5192772;22;19930;-68
2024/03/20 01:13:34;;;;;;;;;;;;;;;7.33;nan;101636.50;5193330;22;19923;-67
2024/03/20 01:15:35;;;;;;;;;;;;;;;7.32;nan;101632.97;5193173;22;19919;-67
2024/03/20 01:17:37;;;;;;;;;;;;;;;7.30;nan;101631.38;5193279;22;19923;-67
2024/03/20 01:19:39;;;;;;;;;;;;;;;7.29;nan;101637.72;5192456;22;19923;-67
2024/03/20 01:21:41;;;;;;;;;;;;;;;7.27;nan;101626.28;5192447;22;19919;-68
2024/03/20 01:23:43;;;;;;;;;;;;;;;7.26;nan;101628.13;5192711;22;19926;-67
2024/03/20 01:25:45;;;;;;;;;;;;;;;7.24;nan;101619.34;5193246;22;19933;-67
2024/03/20 01:27:49;;;;;;;;;;;;;;;7.24;nan;101618.47;5192971;22;19929;-67
2024/03/20 01:29:51;;;;;;;;;;;;;;;7.21;nan;101625.84;5193025;22;19923;-67
2024/03/20 01:31:53;;;;;;;;;;;;;;;7.20;nan;101623.28;5192353;22;20356;-67
2024/03/20 01:33:54;;;;;;;;;;;;;;;7.18;nan;101619.88;5193393;22;19937;-67
2024/03/20 01:35:56;;;;;;;;;;;;;;;7.16;nan;101617.34;5193227;22;19923;-67
2024/03/20 01:37:59;;;;;;;;;;;;;;;7.13;nan;101619.41;5193156;22;19919;-67
2024/03/20 01:40:00;;;;;;;;;;;;;;;7.10;nan;101619.69;5192293;22;19926;-67
2024/03/20 01:42:02;;;;;;;;;;;;;;;7.08;nan;101622.50;5190965;22;19930;-68
2024/03/20 01:44:06;;;;;;;;;;;;;;;7.06;nan;101615.56;5192619;22;20286;-67
2024/03/20 01:46:10;;;;;;;;;;;;;;;7.03;nan;101624.75;5192766;22;19920;-67
2024/03/20 01:48:12;;;;;;;;;;;;;;;6.97;nan;101620.72;5193103;22;19919;-67
2024/03/20 01:50:14;;;;;;;;;;;;;;;6.96;nan;101621.72;5165171;23;20347;-67
2024/03/20 01:52:16;;;;;;;;;;;;;;;6.94;nan;101621.00;5192882;22;19919;-67
2024/03/20 01:54:19;;;;;;;;;;;;;;;6.93;nan;101619.31;5192686;22;19923;-67
2024/03/20 01:56:21;;;;;;;;;;;;;;;6.90;nan;101622.25;5192782;22;19941;-67
2024/03/20 01:58:23;;;;;;;;;;;;;;;6.84;nan;101617.41;5165293;23;20414;-67
2024/03/20 02:00:28;;;;;;;;;;;;;;;6.80;nan;101616.84;5165034;23;19930;-67
2024/03/20 02:02:29;;;;;;;;;;;;;;;6.77;nan;101619.78;5192213;22;19923;-68
2024/03/20 02:04:32;;;;;;;;;;;;;;;6.76;nan;101620.75;5192701;22;19925;-68
2024/03/20 02:06:34;;;;;;;;;;;;;;;6.73;nan;101621.00;5192753;22;19942;-68
2024/03/20 02:08:35;;;;;;;;;;;;;;;6.71;nan;101614.06;5192947;22;19980;-68
2024/03/20 02:10:37;;;;;;;;;;;;;;;6.70;nan;101615.06;5191723;22;19923;-68
2024/03/20 02:12:39;;;;;;;;;;;;;;;6.67;nan;101614.31;5191811;22;19919;-68
2024/03/20 02:14:40;;;;;;;;;;;;;;;6.67;nan;101608.94;5192507;22;19919;-68
2024/03/20 02:16:44;;;;;;;;;;;;;;;6.63;nan;101606.66;5192806;22;20353;-68
2024/03/20 02:18:47;;;;;;;;;;;;;;;6.60;nan;101609.59;5192447;22;19927;-68
2024/03/20 02:20:49;;;;;;;;;;;;;;;6.57;nan;101608.03;5192305;22;20401;-68
2024/03/20 02:22:53;;;;;;;;;;;;;;;6.54;nan;101605.63;5191905;22;20350;-68
2024/03/20 02:24:54;;;;;;;;;;;;;;;6.52;nan;101615.63;5192538;22;19957;-68
2024/03/20 02:26:56;;;;;;;;;;;;;;;6.49;nan;101613.22;5192590;22;20353;-68
2024/03/20 02:28:58;;;;;;;;;;;;;;;6.47;nan;101607.09;5191524;22;19930;-67
2024/03/20 02:31:01;;;;;;;;;;;;;;;6.44;nan;101610.91;5192312;22;19919;-68
2024/03/20 02:33:02;;;;;;;;;;;;;;;6.42;nan;101615.53;5192250;22;20361;-68
2024/03/20 02:35:05;;;;;;;;;;;;;;;6.41;nan;101623.72;5192520;22;19924;-68
2024/03/20 02:37:07;;;;;;;;;;;;;;;6.41;nan;101621.03;5191222;22;19930;-68
2024/03/20 02:39:09;;;;;;;;;;;;;;;6.39;nan;101623.00;5191725;22;20335;-68
2024/03/20 02:41:12;;;;;;;;;;;;;;;6.36;nan;101629.47;5191279;22;19919;-68
2024/03/20 02:43:13;;;;;;;;;;;;;;;6.35;nan;101621.53;5191974;22;19930;-68
2024/03/20 02:45:15;;;;;;;;;;;;;;;6.34;nan;101622.53;5192157;22;20259;-68
2024/03/20 02:47:17;;;;;;;;;;;;;;;6.34;nan;101614.50;5192695;22;19930;-68
2024/03/20 02:49:18;;;;;;;;;;;;;;;6.31;nan;101616.44;5191948;22;19923;-68
2024/03/20 02:51:20;;;;;;;;;;;;;;;6.32;nan;101614.63;5191279;22;20250;-68
2024/03/20 02:53:22;;;;;;;;;;;;;;;6.31;nan;101618.25;5192550;22;19927;-68
2024/03/20 02:55:25;;;;;;;;;;;;;;;6.30;nan;101611.19;5192516;22;19929;-68
2024/03/20 02:57:27;;;;;;;;;;;;;;;6.28;nan;101619.38;5192222;22;19925;-68
2024/03/20 02:59:29;;;;;;;;;;;;;;;6.28;nan;101614.00;5190624;22;20247;-68
2024/03/20 03:01:32;;;;;;;;;;;;;;;6.29;nan;101614.88;5192484;22;19923;-68
2024/03/20 03:03:34;;;;;;;;;;;;;;;6.27;nan;101616.81;5190678;22;19926;-68
2024/03/20 03:05:36;;;;;;;;;;;;;;;6.27;nan;101614.13;5191085;22;19925;-68
2024/03/20 03:07:38;;;;;;;;;;;;;;;6.27;nan;101623.03;5192214;22;19924;-68
2024/03/20 03:09:40;;;;;;;;;;;;;;;6.26;nan;101624.00;5191623;22;19919;-68
2024/03/20 03:11:44;;;;;;;;;;;;;;;6.26;nan;101623.16;5191010;22;20331;-68
2024/03/20 03:13:46;;;;;;;;;;;;;;;6.26;nan;101623.16;5191771;22;19923;-67
2024/03/20 03:15:47;;;;;;;;;;;;;;;6.26;nan;101632.06;5192024;22;19930;-68
2024/03/20 03:17:52;;;;;;;;;;;;;;;6.27;nan;101628.41;5192585;22;20369;-68
2024/03/20 03:19:55;;;;;;;;;;;;;;;6.27;nan;101632.91;5191784;22;19925;-68
2024/03/20 03:21:57;;;;;;;;;;;;;;;6.29;nan;101639.00;5191144;22;19929;-68
2024/03/20 03:23:59;;;;;;;;;;;;;;;6.29;nan;101630.97;5190623;22;19994;-68
2024/03/20 03:26:02;;;;;;;;;;;;;;;6.29;nan;101639.00;5190397;22;20390;-68
2024/03/20 03:28:06;;;;;;;;;;;;;;;6.30;nan;101638.88;5190675;22;19919;-68
2024/03/20 03:30:08;;;;;;;;;;;;;;;6.29;nan;101629.13;5191211;22;19929;-68
2024/03/20 03:32:10;;;;;;;;;;;;;;;6.29;nan;101631.81;5190899;22;19925;-68
2024/03/20 03:34:11;;;;;;;;;;;;;;;6.30;nan;101641.56;5192094;22;20250;-68
2024/03/20 03:36:13;;;;;;;;;;;;;;;6.29;nan;101636.34;5191204;22;19919;-68
2024/03/20 03:38:15;;;;;;;;;;;;;;;6.30;nan;101635.34;5192194;22;19923;-68
2024/03/20 03:40:17;;;;;;;;;;;;;;;6.29;nan;101639.84;5190899;22;20233;-68
2024/03/20 03:42:20;;;;;;;;;;;;;;;6.30;nan;101624.59;5191187;22;19925;-68
2024/03/20 03:44:23;;;;;;;;;;;;;;;6.28;nan;101630.09;5164254;23;20410;-68
2024/03/20 03:46:26;;;;;;;;;;;;;;;6.27;nan;101625.72;5191456;22;19931;-68
2024/03/20 03:48:32;;;;;;;;;;;;;;;6.26;nan;101633.91;5191520;22;19919;-68
2024/03/20 03:50:33;;;;;;;;;;;;;;;6.26;nan;101636.59;5191323;22;19941;-68
2024/03/20 03:52:35;;;;;;;;;;;;;;;6.26;nan;101636.59;5191460;22;19929;-68
2024/03/20 03:54:36;;;;;;;;;;;;;;;6.25;nan;101632.19;5191907;22;19923;-68
2024/03/20 03:56:38;;;;;;;;;;;;;;;6.24;nan;101635.88;5189900;22;19923;-68
2024/03/20 03:58:41;;;;;;;;;;;;;;;6.23;nan;101620.75;5191482;22;20246;-68
2024/03/20 04:00:44;;;;;;;;;;;;;;;6.24;nan;101630.50;5191379;22;19926;-68
2024/03/20 04:02:46;;;;;;;;;;;;;;;6.24;nan;101630.50;5191330;22;19919;-68
2024/03/20 04:04:48;;;;;;;;;;;;;;;6.24;nan;101630.50;5190497;22;19925;-68
2024/03/20 04:06:50;;;;;;;;;;;;;;;6.24;nan;101631.34;5191890;22;19923;-68
2024/03/20 04:08:52;;;;;;;;;;;;;;;6.23;nan;101626.09;5191798;22;19919;-68
2024/03/20 04:10:54;;;;;;;;;;;;;;;6.22;nan;101627.94;5190907;22;19923;-68
2024/03/20 04:12:57;;;;;;;;;;;;;;;6.23;nan;101631.47;5189339;22;19929;-68
2024/03/20 04:14:59;;;;;;;;;;;;;;;6.21;nan;101615.50;5191784;22;19926;-68
2024/03/20 04:17:02;;;;;;;;;;;;;;;6.22;nan;101627.06;5190561;22;19929;-68
2024/03/20 04:19:06;;;;;;;;;;;;;;;6.24;nan;101635.88;5192003;22;19923;-68
2024/03/20 04:21:08;;;;;;;;;;;;;;;6.24;nan;101627.81;5190539;22;19927;-68
2024/03/20 04:23:10;;;;;;;;;;;;;;;6.25;nan;101630.38;5191752;22;19919;-68
2024/03/20 04:25:13;;;;;;;;;;;;;;;6.24;nan;101623.28;5191551;22;20254;-68
2024/03/20 04:27:15;;;;;;;;;;;;;;;6.25;nan;101629.50;5191692;22;19923;-68
2024/03/20 04:29:16;;;;;;;;;;;;;;;6.25;nan;101629.50;5190440;22;19919;-68
2024/03/20 04:31:18;;;;;;;;;;;;;;;6.24;nan;101622.47;5190685;22;19949;-68
2024/03/20 04:33:22;;;;;;;;;;;;;;;6.23;nan;101626.09;5191827;22;19920;-68
2024/03/20 04:35:24;;;;;;;;;;;;;;;6.22;nan;101627.06;5191800;22;20357;-68
2024/03/20 04:37:26;;;;;;;;;;;;;;;6.21;nan;101626.22;5191464;22;19926;-68
2024/03/20 04:39:32;;;;;;;;;;;;;;;6.20;nan;101627.19;5191667;22;20251;-68
2024/03/20 04:41:35;;;;;;;;;;;;;;;6.20;nan;101626.34;5190825;22;20251;-68
2024/03/20 04:43:36;;;;;;;;;;;;;;;6.20;nan;101623.69;5192026;22;19919;-68
2024/03/20 04:45:38;;;;;;;;;;;;;;;6.19;nan;101613.91;5190591;22;19919;-68
2024/03/20 04:47:39;;;;;;;;;;;;;;;6.19;nan;101620.16;5191457;22;19926;-68
2024/03/20 04:49:43;;;;;;;;;;;;;;;6.19;nan;101622.84;5190989;22;19919;-68
2024/03/20 04:51:45;;;;;;;;;;;;;;;6.19;nan;101620.16;5191367;22;19923;-68
2024/03/20 04:53:46;;;;;;;;;;;;;;;6.18;nan;101618.44;5190391;22;19923;-68
2024/03/20 04:55:48;;;;;;;;;;;;;;;6.19;nan;101613.91;5190863;22;19927;-68
2024/03/20 04:57:50;;;;;;;;;;;;;;;6.19;nan;101621.97;5190614;22;19933;-68
2024/03/20 04:59:52;;;;;;;;;;;;;;;6.19;nan;101608.56;5191106;22;19919;-68
2024/03/20 05:01:54;;;;;;;;;;;;;;;6.19;nan;101613.91;5190067;22;19923;-68
2024/03/20 05:03:56;;;;;;;;;;;;;;;6.19;nan;101621.97;5191043;22;19923;-68
2024/03/20 05:05:58;;;;;;;;;;;;;;;6.19;nan;101627.31;5191746;22;20327;-68
2024/03/20 05:08:00;;;;;;;;;;;;;;;6.17;nan;101632.81;5191790;22;19938;-68
2024/03/20 05:10:03;;;;;;;;;;;;;;;6.17;nan;101629.28;5190409;22;19919;-68
2024/03/20 05:12:05;;;;;;;;;;;;;;;6.16;nan;101627.56;5191265;22;19919;-68
2024/03/20 05:14:07;;;;;;;;;;;;;;;6.15;nan;101634.78;5191621;22;19919;-68
2024/03/20 05:16:09;;;;;;;;;;;;;;;6.12;nan;101627.81;5191374;22;19923;-68
2024/03/20 05:18:11;;;;;;;;;;;;;;;6.11;nan;101626.16;5190986;22;19929;-68
2024/03/20 05:20:13;;;;;;;;;;;;;;;6.11;nan;101630.63;5191045;22;20250;-67
2024/03/20 05:22:15;;;;;;;;;;;;;;;6.10;nan;101631.63;5190273;22;20644;-68
2024/03/20 05:24:18;;;;;;;;;;;;;;;6.09;nan;101627.25;5191046;22;19926;-68
2024/03/20 05:26:19;;;;;;;;;;;;;;;6.08;nan;101617.47;5191271;22;19919;-68
2024/03/20 05:28:21;;;;;;;;;;;;;;;6.07;nan;101619.31;5192371;22;19930;-68
2024/03/20 05:30:22;;;;;;;;;;;;;;;6.09;nan;101624.56;5193315;22;19941;-68
2024/03/20 05:32:25;;;;;;;;;;;;;;;6.08;nan;101626.41;5192656;22;19929;-68
2024/03/20 05:34:26;;;;;;;;;;;;;;;6.11;nan;101622.59;5193196;22;19923;-68
2024/03/20 05:36:28;;;;;;;;;;;;;;;6.10;nan;101624.44;5193791;22;19925;-68
2024/03/20 05:38:31;;;;;;;;;;;;;;;6.11;nan;101617.22;5194012;22;19923;-68
2024/03/20 05:40:32;;;;;;;;;;;;;;;6.10;nan;101619.06;5193256;22;19919;-68
2024/03/20 05:42:36;;;;;;;;;;;;;;;6.11;nan;101625.28;5192294;22;19923;-69
2024/03/20 05:44:37;;;;;;;;;;;;;;;6.12;nan;101622.47;5193077;22;19919;-68
2024/03/20 05:46:39;;;;;;;;;;;;;;;6.12;nan;101624.31;5193083;22;20082;-69
2024/03/20 05:48:42;;;;;;;;;;;;;;;6.11;nan;101631.50;5190056;22;20380;-68
2024/03/20 05:50:44;;;;;;;;;;;;;;;6.11;nan;101630.63;5191366;22;20228;-68
2024/03/20 05:52:45;;;;;;;;;;;;;;;6.10;nan;101624.44;5191559;22;19945;-68
2024/03/20 05:54:49;;;;;;;;;;;;;;;6.11;nan;101622.59;5192284;22;20235;-68
2024/03/20 05:56:50;;;;;;;;;;;;;;;6.11;nan;101622.59;5192117;22;20232;-69
2024/03/20 05:58:52;;;;;;;;;;;;;;;6.12;nan;101637.72;5191391;22;19923;-68
2024/03/20 06:00:53;;;;;;;;;;;;;;;6.11;nan;101623.47;5192675;22;19919;-68
2024/03/20 06:02:55;;;;;;;;;;;;;;;6.12;nan;101625.16;5191768;22;19923;-68
2024/03/20 06:04:57;;;;;;;;;;;;;;;6.12;nan;101625.16;5193310;22;19930;-68
2024/03/20 06:06:59;;;;;;;;;;;;;;;6.14;nan;101619.66;5192476;22;19923;-68
2024/03/20 06:09:00;;;;;;;;;;;;;;;6.14;nan;101625.03;5192928;22;19933;-68
2024/03/20 06:11:03;;;;;;;;;;;;;;;6.16;nan;101622.22;5192029;22;19924;-68
2024/03/20 06:13:05;;;;;;;;;;;;;;;6.17;nan;101619.41;5191866;22;20258;-68
2024/03/20 06:15:08;;;;;;;;;;;;;;;6.18;nan;101625.66;5191996;22;19923;-68
2024/03/20 06:17:11;;;;;;;;;;;;;;;6.17;nan;101622.09;5189797;22;19927;-68
2024/03/20 06:19:14;;;;;;;;;;;;;;;6.16;nan;101620.41;5192074;22;19930;-68
2024/03/20 06:21:15;;;;;;;;;;;;;;;6.16;nan;101628.44;5191796;22;20295;-68
2024/03/20 06:23:17;;;;;;;;;;;;;;;6.15;nan;101633.94;5190614;22;19923;-68
2024/03/20 06:25:19;;;;;;;;;;;;;;;6.15;nan;101636.63;5192302;22;20004;-68
2024/03/20 06:27:23;;;;;;;;;;;;;;;6.15;nan;101633.94;5192462;22;19923;-67
2024/03/20 06:29:24;;;;;;;;;;;;;;;6.16;nan;101638.31;5190654;22;19923;-68
2024/03/20 06:31:26;;;;;;;;;;;;;;;6.16;nan;101638.31;5190625;22;19930;-68
2024/03/20 06:33:28;;;;;;;;;;;;;;;6.16;nan;101638.31;5190740;22;19957;-68
2024/03/20 06:35:31;;;;;;;;;;;;;;;6.13;nan;101634.06;5190548;22;19953;-68
2024/03/20 06:37:32;;;;;;;;;;;;;;;6.15;nan;101642.84;5191224;22;19919;-68
2024/03/20 06:39:34;;;;;;;;;;;;;;;6.16;nan;101638.31;5189986;22;19923;-68
2024/03/20 06:41:35;;;;;;;;;;;;;;;6.16;nan;101638.31;5192118;22;19934;-68
2024/03/20 06:43:39;;;;;;;;;;;;;;;6.18;nan;101647.09;5190897;22;20264;-68
2024/03/20 06:45:42;;;;;;;;;;;;;;;6.16;nan;101641.88;5191145;22;19927;-68
2024/03/20 06:47:45;;;;;;;;;;;;;;;6.18;nan;101636.38;5191672;22;19923;-68
2024/03/20 06:49:48;;;;;;;;;;;;;;;6.20;nan;101645.13;5191662;22;19930;-68
2024/03/20 06:51:50;;;;;;;;;;;;;;;6.22;nan;101637.81;5192312;22;19957;-68
2024/03/20 06:53:51;;;;;;;;;;;;;;;6.22;nan;101648.53;5191557;22;19926;-68
2024/03/20 06:55:55;;;;;;;;;;;;;;;6.23;nan;101636.84;5191941;22;19923;-68
2024/03/20 06:57:56;;;;;;;;;;;;;;;6.26;nan;101644.63;5191923;22;19923;-68
2024/03/20 06:59:59;;;;;;;;;;;;;;;6.25;nan;101634.88;5193105;22;19920;-68
2024/03/20 07:02:01;;;;;;;;;;;;;;;6.30;nan;101644.25;5192078;22;19934;-68
2024/03/20 07:04:04;;;;;;;;;;;;;;;6.33;nan;101643.13;5184885;22;19919;-68
2024/03/20 07:06:05;;;;;;;;;;;;;;;6.36;nan;101637.50;5189050;22;19920;-68
2024/03/20 07:08:09;;;;;;;;;;;;;;;6.39;nan;101637.25;5189663;22;19923;-68
2024/03/20 07:10:10;;;;;;;;;;;;;;;6.41;nan;101631.75;5190179;22;20008;-68
2024/03/20 07:12:14;;;;;;;;;;;;;;;6.44;nan;101631.50;5190366;22;19923;-68
2024/03/20 07:14:16;;;;;;;;;;;;;;;6.46;nan;101627.72;5193046;22;19925;-68
2024/03/20 07:16:19;;;;;;;;;;;;;;;6.49;nan;101632.84;5193232;22;19926;-68
2024/03/20 07:18:20;;;;;;;;;;;;;;;6.53;nan;101630.72;5192673;22;19927;-68
2024/03/20 07:20:23;;;;;;;;;;;;;;;6.54;nan;101632.44;5191630;22;19929;-68
2024/03/20 07:22:24;;;;;;;;;;;;;;;6.57;nan;101632.19;5193007;22;20456;-68
2024/03/20 07:24:26;;;;;;;;;;;;;;;6.59;nan;101626.69;5192313;22;19919;-68
2024/03/20 07:26:28;;;;;;;;;;;;;;;6.63;nan;101631.69;5192263;22;19926;-68
2024/03/20 07:28:29;;;;;;;;;;;;;;;6.66;nan;101627.88;5192338;22;20341;-68
2024/03/20 07:30:31;;;;;;;;;;;;;;;6.68;nan;101628.59;5191368;22;19924;-68
2024/03/20 07:32:35;;;;;;;;;;;;;;;6.71;nan;101628.34;5191283;22;20353;-68
2024/03/20 07:34:37;;;;;;;;;;;;;;;6.73;nan;101639.81;5191510;22;19919;-68
2024/03/20 07:36:38;;;;;;;;;;;;;;;6.76;nan;101633.34;5191823;22;20264;-68
2024/03/20 07:38:41;;;;;;;;;;;;;;;6.79;nan;101635.75;5191504;22;20219;-68
2024/03/20 07:40:42;;;;;;;;;;;;;;;6.83;nan;101637.19;5190758;22;19919;-68
2024/03/20 07:42:44;;;;;;;;;;;;;;;6.87;nan;101643.16;5191365;22;19923;-68
2024/03/20 07:44:47;;;;;;;;;;;;;;;6.91;nan;101642.78;5190890;22;19926;-68
2024/03/20 07:46:49;;;;;;;;;;;;;;;6.95;nan;101637.97;5192950;22;19919;-68
2024/03/20 07:48:52;;;;;;;;;;;;;;;6.98;nan;101635.88;5192008;22;19945;-68
2024/03/20 07:50:54;;;;;;;;;;;;;;;7.04;nan;101635.34;5193208;22;20224;-68
2024/03/20 07:52:55;;;;;;;;;;;;;;;7.08;nan;101637.78;5192596;22;19937;-68
2024/03/20 07:54:57;;;;;;;;;;;;;;;7.12;nan;101640.06;5193199;22;19919;-68
2024/03/20 07:56:59;;;;;;;;;;;;;;;7.17;nan;101639.66;5193455;22;19923;-68
2024/03/20 07:59:01;;;;;;;;;;;;;;;7.20;nan;101640.25;5166392;23;20221;-68
2024/03/20 08:01:04;;;;;;;;;;;;;;;7.27;nan;101639.72;5192994;22;19919;-68
2024/03/20 08:03:06;;;;;;;;;;;;;;;7.31;nan;101644.69;5191593;22;20437;-68
2024/03/20 08:05:09;;;;;;;;;;;;;;;7.35;nan;101639.88;5192284;22;19923;-68
2024/03/20 08:07:11;;;;;;;;;;;;;;;7.39;nan;101644.88;5192542;22;20224;-68
2024/03/20 08:09:13;;;;;;;;;;;;;;;7.45;nan;101645.34;5192529;22;19925;-68
2024/03/20 08:11:15;;;;;;;;;;;;;;;7.50;nan;101651.16;5191771;22;19920;-68
2024/03/20 08:13:17;;;;;;;;;;;;;;;7.54;nan;101657.97;5165046;23;19930;-68
2024/03/20 08:15:19;;;;;;;;;;;;;;;7.57;nan;101653.16;5192881;22;19923;-68
2024/03/20 08:17:21;;;;;;;;;;;;;;;7.63;nan;101651.75;5192643;22;19934;-68
2024/03/20 08:19:23;;;;;;;;;;;;;;;7.68;nan;101654.03;5192304;22;19929;-68
2024/03/20 08:21:26;;;;;;;;;;;;;;;7.72;nan;101652.78;5191740;22;19930;-68
2024/03/20 08:23:29;;;;;;;;;;;;;;;7.76;nan;101665.00;5192167;22;19926;-68
2024/03/20 08:25:30;;;;;;;;;;;;;;;7.80;nan;101661.03;5191557;22;20259;-68
2024/03/20 08:27:32;;;;;;;;;;;;;;;7.84;nan;101657.09;5192235;22;20373;-68
2024/03/20 08:29:33;;;;;;;;;;;;;;;7.89;nan;101664.75;5192173;22;19925;-68
2024/03/20 08:31:35;;;;;;;;;;;;;;;7.94;nan;101654.41;5192274;22;19919;-68
2024/03/20 08:33:36;;;;;;;;;;;;;;;8.00;nan;101658.41;5191827;22;19919;-68
2024/03/20 08:35:38;;;;;;;;;;;;;;;8.04;nan;101649.94;5192543;22;19930;-68
2024/03/20 08:37:41;;;;;;;;;;;;;;;8.11;nan;101652.91;5192501;22;19919;-68
2024/03/20 08:39:43;;;;;;;;;;;;;;;8.19;nan;101649.53;5191700;22;19919;-68
2024/03/20 08:41:44;;;;;;;;;;;;;;;8.24;nan;101663.41;5191715;22;19923;-68
2024/03/20 08:43:47;;;;;;;;;;;;;;;8.29;nan;101659.31;5192678;22;19919;-68
2024/03/20 08:45:48;;;;;;;;;;;;;;;8.35;nan;101657.06;5191141;22;19919;-68
2024/03/20 08:47:51;;;;;;;;;;;;;;;8.41;nan;101651.94;5191845;22;19919;-68
2024/03/20 08:49:52;;;;;;;;;;;;;;;8.46;nan;101644.34;5192265;22;19922;-68
2024/03/20 08:51:54;;;;;;;;;;;;;;;8.52;nan;101650.16;5189924;22;19923;-68
2024/03/20 08:53:57;;;;;;;;;;;;;;;8.58;nan;101650.44;5192724;22;19924;-68
2024/03/20 08:55:59;;;;;;;;;;;;;;;8.64;nan;101651.72;5192726;22;19919;-68
2024/03/20 08:58:01;;;;;;;;;;;;;;;8.70;nan;101652.97;5191357;22;20335;-68
2024/03/20 09:00:06;;;;;;;;;;;;;;;8.75;nan;101648.03;5192201;22;19923;-68
2024/03/20 09:02:13;;;;;;;;;;;;;;;8.81;nan;101647.47;5190999;22;19942;-68
2024/03/20 09:04:15;;;;;;;;;;;;;;;8.88;nan;101642.34;5193312;22;19923;-68
2024/03/20 09:06:17;;;;;;;;;;;;;;;8.94;nan;101652.53;5193845;22;19919;-68
2024/03/20 09:08:19;;;;;;;;;;;;;;;8.99;nan;101647.56;5193631;22;19926;-68
2024/03/20 09:10:21;;;;;;;;;;;;;;;9.05;nan;101652.38;5193029;22;20658;-68
2024/03/20 09:12:24;;;;;;;;;;;;;;;9.12;nan;101647.25;5193335;22;20290;-68
2024/03/20 09:14:25;;;;;;;;;;;;;;;9.16;nan;101638.72;5193966;22;19938;-68
2024/03/20 09:16:27;;;;;;;;;;;;;;;9.24;nan;101642.56;5193852;22;19929;-68
2024/03/20 09:18:28;;;;;;;;;;;;;;;9.30;nan;101641.97;5192123;22;19920;-68
2024/03/20 09:20:30;;;;;;;;;;;;;;;9.36;nan;101636.00;5192873;22;19930;-68
2024/03/20 09:22:31;;;;;;;;;;;;;;;9.42;nan;101640.81;5193408;22;19923;-68
2024/03/20 09:24:34;;;;;;;;;;;;;;;9.48;nan;101639.34;5193905;22;19924;-68
2024/03/20 09:26:37;;;;;;;;;;;;;;;9.52;nan;101640.75;5193566;22;19919;-68
2024/03/20 09:28:40;;;;;;;;;;;;;;;9.59;nan;101647.25;5193557;22;20250;-68
2024/03/20 09:30:41;;;;;;;;;;;;;;;9.64;nan;101641.41;5193471;22;19930;-68
2024/03/20 09:32:43;;;;;;;;;;;;;;;9.69;nan;101641.81;5192946;22;19923;-68
2024/03/20 09:34:44;;;;;;;;;;;;;;;9.73;nan;101644.06;5193967;22;19929;-68
2024/03/20 09:36:49;;;;;;;;;;;;;;;9.78;nan;101640.06;5193236;22;20230;-68
2024/03/20 09:38:50;;;;;;;;;;;;;;;9.82;nan;101625.28;5192393;22;19929;-68
2024/03/20 09:40:52;;;;;;;;;;;;;;;9.86;nan;101637.47;5193178;22;19923;-68
2024/03/20 09:42:55;;;;;;;;;;;;;;;9.89;nan;101627.22;5193352;22;19923;-68
2024/03/20 09:44:57;;;;;;;;;;;;;;;9.93;nan;101633.16;5193482;22;19923;-68
2024/03/20 09:46:59;;;;;;;;;;;;;;;9.97;nan;101629.19;5193851;22;20366;-68
2024/03/20 09:49:01;;;;;;;;;;;;;;;10.00;nan;101622.59;5193497;22;20251;-68
2024/03/20 09:51:03;;;;;;;;;;;;;;;10.04;nan;101624.00;5193839;22;19942;-68
2024/03/20 09:53:06;;;;;;;;;;;;;;;10.06;nan;101620.16;5193886;22;19923;-68
2024/03/20 09:55:07;;;;;;;;;;;;;;;10.10;nan;101623.41;5193321;22;19926;-68
2024/03/20 09:57:12;;;;;;;;;;;;;;;10.13;nan;101623.09;5192529;22;19923;-68
2024/03/20 09:59:14;;;;;;;;;;;;;;;10.16;nan;101622.81;5193591;22;19929;-68
2024/03/20 10:01:17;;;;;;;;;;;;;;;10.18;nan;101623.50;5193541;22;19919;-68
2024/03/20 10:03:19;;;;;;;;;;;;;;;10.21;nan;101614.25;5194133;22;19937;-68
2024/03/20 10:05:21;;;;;;;;;;;;;;;10.23;nan;101618.47;5193641;22;19919;-68
2024/03/20 10:07:22;;;;;;;;;;;;;;;10.26;nan;101623.56;5193491;22;19929;-68
2024/03/20 10:09:27;;;;;;;;;;;;;;;10.29;nan;101627.81;5193687;22;19929;-68
2024/03/20 10:11:28;;;;;;;;;;;;;;;10.29;nan;101617.84;5193075;22;19923;-68
2024/03/20 10:13:31;;;;;;;;;;;;;;;10.33;nan;101618.44;5192533;22;19934;-68
2024/03/20 10:15:33;;;;;;;;;;;;;;;10.36;nan;101619.97;5193401;22;20369;-68
2024/03/20 10:17:36;;;;;;;;;;;;;;;10.38;nan;101615.28;5192538;22;19939;-68
2024/03/20 10:19:37;;;;;;;;;;;;;;;10.41;nan;101609.59;5193476;22;19942;-68
2024/03/20 10:21:40;;;;;;;;;;;;;;;10.43;nan;101607.56;5192175;22;19925;-68
2024/03/20 10:23:42;;;;;;;;;;;;;;;10.45;nan;101608.25;5190999;22;19920;-68
2024/03/20 10:25:44;;;;;;;;;;;;;;;10.46;nan;101602.69;5191115;22;19919;-68
2024/03/20 10:27:45;;;;;;;;;;;;;;;10.49;nan;101598.84;5192532;22;20343;-68
2024/03/20 10:29:47;;;;;;;;;;;;;;;10.51;nan;101593.28;5192039;22;20323;-68
2024/03/20 10:31:50;;;;;;;;;;;;;;;10.53;nan;101602.94;5191409;22;19945;-68
2024/03/20 10:33:52;;;;;;;;;;;;;;;10.56;nan;101596.34;5192377;22;19923;-68
2024/03/20 10:35:53;;;;;;;;;;;;;;;10.57;nan;101598.06;5192353;22;19923;-68
2024/03/20 10:37:55;;;;;;;;;;;;;;;10.55;nan;101576.63;5192249;22;19924;-68
2024/03/20 10:39:58;;;;;;;;;;;;;;;10.62;nan;101593.03;5192319;22;19938;-68
2024/03/20 10:41:59;;;;;;;;;;;;;;;10.63;nan;101587.47;5192635;22;19923;-68
2024/03/20 10:44:02;;;;;;;;;;;;;;;10.66;nan;101588.16;5192896;22;19927;-68
2024/03/20 10:46:03;;;;;;;;;;;;;;;10.68;nan;101588.88;5192158;22;20137;-68
2024/03/20 10:48:07;;;;;;;;;;;;;;;10.69;nan;101585.16;5192421;22;19919;-68
2024/03/20 10:50:15;;;;;;;;;;;;;;;10.71;nan;101584.00;5192545;22;19919;-68
2024/03/20 10:52:17;;;;;;;;;;;;;;;10.74;nan;101580.13;5165457;23;19920;-68